Vtc Dragon — 3WSU — position and weather

sailwx.info

Track history (hours):
 
Tides and Currents Weather Stations Pressure Air Temp Water Temp Dewpoint Dewpoint Depression Visibility Wind Speed Wind Dir Waves Ship Positions

Vtc Dragon

Last reported at 2018-Jun-25 01:46 UTC. Time now 2018-Jun-25 02:13 UTC.
Position N 23°10' E 117°43'.

Length 154 m; draft 8.8 m.

Type: Cargo ship. MMSI: 574493000.

Date/timePositionNaut miles runAvg speedWind from/ knotsBaromVisibWave heightAir tempDewpointWater temp
2018-Jun-25 01:46N 23°10' E 117°43'510.6
2018-Jun-25 01:19N 23°12' E 117°48'310.7
2018-Jun-25 01:00N 23°14' E 117°50'510.9
2018-Jun-25 00:30N 23°18' E 117°54'510.7
2018-Jun-25 00:00N 23°22' E 117°58'610.2
2018-Jun-24 23:26N 23°25' E 118°04'510.6
2018-Jun-24 22:55N 23°29' E 118°08'510.9
2018-Jun-24 22:30N 23°32' E 118°12'610.9
2018-Jun-24 21:58N 23°36' E 118°16'511.0
2018-Jun-24 21:30N 23°39' E 118°21'611.2
2018-Jun-24 21:00N 23°43' E 118°25'611.4
2018-Jun-24 20:29N 23°48' E 118°29'611.2
2018-Jun-24 19:59N 23°51' E 118°34'911.2
2018-Jun-24 19:13N 23°56' E 118°42'311.5
2018-Jun-24 18:57N 23°58' E 118°44'811.5
2018-Jun-24 18:17N 24°03' E 118°50'1611.7
2018-Jun-24 16:55N 24°14' E 119°03'611.8
2018-Jun-24 16:24N 24°18' E 119°08'711.8
2018-Jun-24 15:49N 24°23' E 119°14'711.7
2018-Jun-24 15:15N 24°27' E 119°19'  
2018-Jun-21 07:57N 37°53' E 122°07'611.3
2018-Jun-21 07:23N 37°56' E 122°01'511.5
2018-Jun-21 07:00N 37°59' E 121°56'611.5
2018-Jun-21 06:30N 38°02' E 121°50'1211.3
2018-Jun-21 05:28N 38°10' E 121°39'1611.7
2018-Jun-21 04:06N 38°19' E 121°22'612.1
2018-Jun-21 03:38N 38°22' E 121°16'211.9
2018-Jun-21 03:29N 38°23' E 121°14'611.7
2018-Jun-21 02:57N 38°27' E 121°08'511.7
2018-Jun-21 02:30N 38°30' E 121°02'612.1
2018-Jun-21 01:59N 38°32' E 120°55'1511.5
2018-Jun-21 00:40N 38°35' E 120°36'211.6
2018-Jun-21 00:30N 38°35' E 120°34'711.5
2018-Jun-20 23:54N 38°35' E 120°25'411.1
2018-Jun-20 23:30N 38°35' E 120°19'611.0
2018-Jun-20 23:00N 38°36' E 120°12'910.9
2018-Jun-20 22:12N 38°38' E 120°01'1710.9
2018-Jun-20 20:39N 38°40' E 119°40'211.1
2018-Jun-20 20:30N 38°40' E 119°38'611.2
2018-Jun-20 20:00N 38°41' E 119°31'611.4
2018-Jun-20 19:30N 38°42' E 119°23'611.4
2018-Jun-20 18:59N 38°43' E 119°16'611.5
2018-Jun-20 18:29N 38°44' E 119°09'2612.0
2018-Jun-20 16:20N 38°48' E 118°36'412.3
2018-Jun-20 15:58N 38°49' E 118°30'2710.2
2018-Jun-20 13:17N 38°57' E 117°57'  
Track history (hours):
 
Tides and Currents Weather Stations Pressure Air Temp Water Temp Dewpoint Dewpoint Depression Visibility Wind Speed Wind Dir Waves Ship Positions

Vtc Dragon

Last reported at 2018-Jun-25 01:46 UTC. Time now 2018-Jun-25 02:13 UTC.
Position N 23°10' E 117°43'.

Length 154 m; draft 8.8 m.

Type: Cargo ship. MMSI: 574493000.

Date/timePositionNaut miles runAvg speedWind from/ knotsBaromVisibWave heightAir tempDewpointWater temp
2018-Jun-25 01:46N 23°10' E 117°43'510.6
2018-Jun-25 01:19N 23°12' E 117°48'310.7
2018-Jun-25 01:00N 23°14' E 117°50'510.9
2018-Jun-25 00:30N 23°18' E 117°54'510.7
2018-Jun-25 00:00N 23°22' E 117°58'610.2
2018-Jun-24 23:26N 23°25' E 118°04'510.6
2018-Jun-24 22:55N 23°29' E 118°08'510.9
2018-Jun-24 22:30N 23°32' E 118°12'610.9
2018-Jun-24 21:58N 23°36' E 118°16'511.0
2018-Jun-24 21:30N 23°39' E 118°21'611.2
2018-Jun-24 21:00N 23°43' E 118°25'611.4
2018-Jun-24 20:29N 23°48' E 118°29'611.2
2018-Jun-24 19:59N 23°51' E 118°34'911.2
2018-Jun-24 19:13N 23°56' E 118°42'311.5
2018-Jun-24 18:57N 23°58' E 118°44'811.5
2018-Jun-24 18:17N 24°03' E 118°50'1611.7
2018-Jun-24 16:55N 24°14' E 119°03'611.8
2018-Jun-24 16:24N 24°18' E 119°08'711.8
2018-Jun-24 15:49N 24°23' E 119°14'711.7
2018-Jun-24 15:15N 24°27' E 119°19'  
2018-Jun-21 07:57N 37°53' E 122°07'611.3
2018-Jun-21 07:23N 37°56' E 122°01'511.5
2018-Jun-21 07:00N 37°59' E 121°56'611.5
2018-Jun-21 06:30N 38°02' E 121°50'1211.3
2018-Jun-21 05:28N 38°10' E 121°39'1611.7
2018-Jun-21 04:06N 38°19' E 121°22'612.1
2018-Jun-21 03:38N 38°22' E 121°16'211.9
2018-Jun-21 03:29N 38°23' E 121°14'611.7
2018-Jun-21 02:57N 38°27' E 121°08'511.7
2018-Jun-21 02:30N 38°30' E 121°02'612.1
2018-Jun-21 01:59N 38°32' E 120°55'1511.5
2018-Jun-21 00:40N 38°35' E 120°36'211.6
2018-Jun-21 00:30N 38°35' E 120°34'711.5
2018-Jun-20 23:54N 38°35' E 120°25'411.1
2018-Jun-20 23:30N 38°35' E 120°19'611.0
2018-Jun-20 23:00N 38°36' E 120°12'910.9
2018-Jun-20 22:12N 38°38' E 120°01'1710.9
2018-Jun-20 20:39N 38°40' E 119°40'211.1
2018-Jun-20 20:30N 38°40' E 119°38'611.2
2018-Jun-20 20:00N 38°41' E 119°31'611.4
2018-Jun-20 19:30N 38°42' E 119°23'611.4
2018-Jun-20 18:59N 38°43' E 119°16'611.5
2018-Jun-20 18:29N 38°44' E 119°09'2612.0
2018-Jun-20 16:20N 38°48' E 118°36'412.3
2018-Jun-20 15:58N 38°49' E 118°30'2710.2
2018-Jun-20 13:17N 38°57' E 117°57'  

Dump ship's entire track history